sensor_id;sensor_type;location;lat;lon;timestamp;P1;durP1;ratioP1;P2;durP2;ratioP2
3643;SDS011;1838;50.742;7.158;2023-02-21T00:01:53;46.93;;;21.30;;
3643;SDS011;1838;50.742;7.158;2023-02-21T00:04:38;40.00;;;20.87;;
3643;SDS011;1838;50.742;7.158;2023-02-21T00:07:22;49.63;;;22.63;;
3643;SDS011;1838;50.742;7.158;2023-02-21T00:10:07;52.37;;;23.57;;
3643;SDS011;1838;50.742;7.158;2023-02-21T00:12:52;41.90;;;21.60;;
3643;SDS011;1838;50.742;7.158;2023-02-21T00:15:36;38.00;;;20.67;;
3643;SDS011;1838;50.742;7.158;2023-02-21T00:18:20;46.73;;;21.90;;
3643;SDS011;1838;50.742;7.158;2023-02-21T00:21:04;39.13;;;19.60;;
3643;SDS011;1838;50.742;7.158;2023-02-21T00:23:49;40.53;;;19.97;;
3643;SDS011;1838;50.742;7.158;2023-02-21T00:26:32;44.23;;;21.70;;
3643;SDS011;1838;50.742;7.158;2023-02-21T00:29:16;46.70;;;23.30;;
3643;SDS011;1838;50.742;7.158;2023-02-21T00:32:01;48.17;;;24.20;;
3643;SDS011;1838;50.742;7.158;2023-02-21T00:34:45;42.67;;;23.50;;
3643;SDS011;1838;50.742;7.158;2023-02-21T00:37:29;53.73;;;25.50;;
3643;SDS011;1838;50.742;7.158;2023-02-21T00:40:13;43.83;;;24.40;;
3643;SDS011;1838;50.742;7.158;2023-02-21T00:42:59;49.27;;;27.10;;
3643;SDS011;1838;50.742;7.158;2023-02-21T00:45:43;56.27;;;30.57;;
3643;SDS011;1838;50.742;7.158;2023-02-21T00:48:28;54.37;;;26.23;;
3643;SDS011;1838;50.742;7.158;2023-02-21T00:51:13;42.07;;;24.87;;
3643;SDS011;1838;50.742;7.158;2023-02-21T00:53:57;51.40;;;23.10;;
3643;SDS011;1838;50.742;7.158;2023-02-21T00:56:41;40.00;;;21.63;;
3643;SDS011;1838;50.742;7.158;2023-02-21T00:59:25;51.60;;;24.13;;
3643;SDS011;1838;50.742;7.158;2023-02-21T01:02:10;49.63;;;25.50;;
3643;SDS011;1838;50.742;7.158;2023-02-21T01:04:54;47.40;;;25.83;;
3643;SDS011;1838;50.742;7.158;2023-02-21T01:07:38;42.87;;;24.53;;
3643;SDS011;1838;50.742;7.158;2023-02-21T01:10:23;40.13;;;22.83;;
3643;SDS011;1838;50.742;7.158;2023-02-21T01:13:07;50.47;;;25.20;;
3643;SDS011;1838;50.742;7.158;2023-02-21T01:15:52;58.80;;;24.60;;
3643;SDS011;1838;50.742;7.158;2023-02-21T01:18:36;50.43;;;23.80;;
3643;SDS011;1838;50.742;7.158;2023-02-21T01:21:20;50.80;;;27.37;;
3643;SDS011;1838;50.742;7.158;2023-02-21T01:24:05;50.37;;;24.60;;
3643;SDS011;1838;50.742;7.158;2023-02-21T01:26:50;40.20;;;20.10;;
3643;SDS011;1838;50.742;7.158;2023-02-21T01:29:34;50.43;;;20.27;;
3643;SDS011;1838;50.742;7.158;2023-02-21T01:32:18;48.53;;;21.60;;
3643;SDS011;1838;50.742;7.158;2023-02-21T01:35:03;49.43;;;21.73;;
3643;SDS011;1838;50.742;7.158;2023-02-21T01:37:47;39.77;;;21.07;;
3643;SDS011;1838;50.742;7.158;2023-02-21T01:40:31;70.43;;;39.90;;
3643;SDS011;1838;50.742;7.158;2023-02-21T01:43:16;64.33;;;36.93;;
3643;SDS011;1838;50.742;7.158;2023-02-21T01:46:05;76.60;;;40.60;;
3643;SDS011;1838;50.742;7.158;2023-02-21T01:48:52;73.57;;;39.10;;
3643;SDS011;1838;50.742;7.158;2023-02-21T01:51:39;70.63;;;42.10;;
3643;SDS011;1838;50.742;7.158;2023-02-21T01:54:25;81.60;;;45.57;;
3643;SDS011;1838;50.742;7.158;2023-02-21T01:57:12;65.33;;;41.87;;
3643;SDS011;1838;50.742;7.158;2023-02-21T01:59:57;58.30;;;31.17;;
3643;SDS011;1838;50.742;7.158;2023-02-21T02:02:49;57.40;;;29.97;;
3643;SDS011;1838;50.742;7.158;2023-02-21T02:05:37;55.37;;;27.27;;
3643;SDS011;1838;50.742;7.158;2023-02-21T02:08:28;57.97;;;29.70;;
3643;SDS011;1838;50.742;7.158;2023-02-21T02:14:44;60.63;;;32.77;;
3643;SDS011;1838;50.742;7.158;2023-02-21T02:17:25;60.77;;;33.10;;
3643;SDS011;1838;50.742;7.158;2023-02-21T02:29:34;72.17;;;35.80;;
3643;SDS011;1838;50.742;7.158;2023-02-21T02:32:30;55.00;;;30.37;;
3643;SDS011;1838;50.742;7.158;2023-02-21T02:35:19;55.57;;;27.10;;
3643;SDS011;1838;50.742;7.158;2023-02-21T02:37:57;55.47;;;26.27;;
3643;SDS011;1838;50.742;7.158;2023-02-21T02:40:59;55.23;;;27.37;;
3643;SDS011;1838;50.742;7.158;2023-02-21T02:43:30;53.00;;;29.50;;
3643;SDS011;1838;50.742;7.158;2023-02-21T02:46:07;55.93;;;28.77;;
3643;SDS011;1838;50.742;7.158;2023-02-21T02:49:15;55.80;;;26.90;;
3643;SDS011;1838;50.742;7.158;2023-02-21T02:51:42;45.87;;;22.83;;
3643;SDS011;1838;50.742;7.158;2023-02-21T02:54:07;50.67;;;23.53;;
3643;SDS011;1838;50.742;7.158;2023-02-21T02:56:33;47.40;;;23.50;;
3643;SDS011;1838;50.742;7.158;2023-02-21T02:59:05;49.77;;;23.40;;
3643;SDS011;1838;50.742;7.158;2023-02-21T03:01:48;48.53;;;21.77;;
3643;SDS011;1838;50.742;7.158;2023-02-21T03:04:41;47.50;;;22.03;;
3643;SDS011;1838;50.742;7.158;2023-02-21T03:13:05;48.60;;;22.67;;
3643;SDS011;1838;50.742;7.158;2023-02-21T03:15:45;52.80;;;22.37;;
3643;SDS011;1838;50.742;7.158;2023-02-21T03:19:00;48.10;;;21.93;;
3643;SDS011;1838;50.742;7.158;2023-02-21T03:21:13;42.20;;;20.40;;
3643;SDS011;1838;50.742;7.158;2023-02-21T03:23:44;39.83;;;21.20;;
3643;SDS011;1838;50.742;7.158;2023-02-21T03:26:12;48.97;;;22.20;;
3643;SDS011;1838;50.742;7.158;2023-02-21T03:28:40;47.00;;;22.40;;
3643;SDS011;1838;50.742;7.158;2023-02-21T03:31:06;46.37;;;21.70;;
3643;SDS011;1838;50.742;7.158;2023-02-21T03:33:33;51.60;;;21.70;;
3643;SDS011;1838;50.742;7.158;2023-02-21T03:35:59;51.67;;;22.17;;
3643;SDS011;1838;50.742;7.158;2023-02-21T03:38:27;46.53;;;22.07;;
3643;SDS011;1838;50.742;7.158;2023-02-21T03:40:54;54.93;;;23.03;;
3643;SDS011;1838;50.742;7.158;2023-02-21T03:43:20;47.30;;;22.97;;
3643;SDS011;1838;50.742;7.158;2023-02-21T03:45:45;41.47;;;21.43;;
3643;SDS011;1838;50.742;7.158;2023-02-21T03:48:11;51.27;;;23.70;;
3643;SDS011;1838;50.742;7.158;2023-02-21T03:50:36;44.13;;;21.37;;
3643;SDS011;1838;50.742;7.158;2023-02-21T03:53:10;44.38;;;22.49;;
3643;SDS011;1838;50.742;7.158;2023-02-21T03:55:36;47.70;;;23.30;;
3643;SDS011;1838;50.742;7.158;2023-02-21T03:58:01;47.40;;;24.07;;
3643;SDS011;1838;50.742;7.158;2023-02-21T04:00:27;43.87;;;22.23;;
3643;SDS011;1838;50.742;7.158;2023-02-21T04:02:53;50.47;;;23.67;;
3643;SDS011;1838;50.742;7.158;2023-02-21T04:05:19;43.77;;;21.10;;
3643;SDS011;1838;50.742;7.158;2023-02-21T04:07:44;39.23;;;19.67;;
3643;SDS011;1838;50.742;7.158;2023-02-21T04:10:10;48.70;;;20.63;;
3643;SDS011;1838;50.742;7.158;2023-02-21T04:12:37;52.23;;;23.77;;
3643;SDS011;1838;50.742;7.158;2023-02-21T04:15:02;46.70;;;20.40;;
3643;SDS011;1838;50.742;7.158;2023-02-21T04:17:28;37.77;;;19.37;;
3643;SDS011;1838;50.742;7.158;2023-02-21T04:19:54;42.03;;;20.90;;
3643;SDS011;1838;50.742;7.158;2023-02-21T04:22:19;42.60;;;20.83;;
3643;SDS011;1838;50.742;7.158;2023-02-21T04:24:46;41.47;;;19.90;;
3643;SDS011;1838;50.742;7.158;2023-02-21T04:27:12;39.60;;;20.17;;
3643;SDS011;1838;50.742;7.158;2023-02-21T04:29:38;37.83;;;18.43;;
3643;SDS011;1838;50.742;7.158;2023-02-21T04:32:04;37.03;;;18.60;;
3643;SDS011;1838;50.742;7.158;2023-02-21T04:34:29;43.73;;;21.97;;
3643;SDS011;1838;50.742;7.158;2023-02-21T04:36:55;58.60;;;21.80;;
3643;SDS011;1838;50.742;7.158;2023-02-21T04:39:20;42.03;;;25.10;;
3643;SDS011;1838;50.742;7.158;2023-02-21T04:41:46;58.27;;;28.70;;
3643;SDS011;1838;50.742;7.158;2023-02-21T04:44:11;55.93;;;32.33;;
3643;SDS011;1838;50.742;7.158;2023-02-21T04:46:37;60.47;;;33.57;;
3643;SDS011;1838;50.742;7.158;2023-02-21T04:49:02;53.63;;;30.13;;
3643;SDS011;1838;50.742;7.158;2023-02-21T04:51:28;52.50;;;26.17;;
3643;SDS011;1838;50.742;7.158;2023-02-21T04:53:54;52.60;;;26.83;;
3643;SDS011;1838;50.742;7.158;2023-02-21T04:56:21;53.47;;;26.57;;
3643;SDS011;1838;50.742;7.158;2023-02-21T04:58:48;53.97;;;26.37;;
3643;SDS011;1838;50.742;7.158;2023-02-21T05:01:15;69.33;;;33.63;;
3643;SDS011;1838;50.742;7.158;2023-02-21T05:03:42;78.20;;;40.87;;
3643;SDS011;1838;50.742;7.158;2023-02-21T05:06:07;81.03;;;47.23;;
3643;SDS011;1838;50.742;7.158;2023-02-21T05:08:34;84.67;;;47.80;;
3643;SDS011;1838;50.742;7.158;2023-02-21T05:11:00;89.30;;;53.00;;
3643;SDS011;1838;50.742;7.158;2023-02-21T05:13:26;81.40;;;48.80;;
3643;SDS011;1838;50.742;7.158;2023-02-21T05:15:51;74.33;;;41.77;;
3643;SDS011;1838;50.742;7.158;2023-02-21T05:18:17;73.97;;;39.40;;
3643;SDS011;1838;50.742;7.158;2023-02-21T05:20:46;71.60;;;37.80;;
3643;SDS011;1838;50.742;7.158;2023-02-21T05:23:13;61.07;;;32.43;;
3643;SDS011;1838;50.742;7.158;2023-02-21T05:25:41;68.27;;;33.63;;
3643;SDS011;1838;50.742;7.158;2023-02-21T05:28:07;65.83;;;32.23;;
3643;SDS011;1838;50.742;7.158;2023-02-21T05:30:33;51.80;;;30.63;;
3643;SDS011;1838;50.742;7.158;2023-02-21T05:32:58;64.93;;;30.37;;
3643;SDS011;1838;50.742;7.158;2023-02-21T05:35:24;51.90;;;27.37;;
3643;SDS011;1838;50.742;7.158;2023-02-21T05:37:50;55.17;;;25.77;;
3643;SDS011;1838;50.742;7.158;2023-02-21T05:40:16;55.53;;;27.67;;
3643;SDS011;1838;50.742;7.158;2023-02-21T05:42:41;50.03;;;28.20;;
3643;SDS011;1838;50.742;7.158;2023-02-21T05:45:08;55.87;;;28.10;;
3643;SDS011;1838;50.742;7.158;2023-02-21T05:47:34;51.43;;;27.80;;
3643;SDS011;1838;50.742;7.158;2023-02-21T05:49:59;51.73;;;25.63;;
3643;SDS011;1838;50.742;7.158;2023-02-21T05:52:25;49.43;;;24.30;;
3643;SDS011;1838;50.742;7.158;2023-02-21T05:54:51;45.43;;;22.60;;
3643;SDS011;1838;50.742;7.158;2023-02-21T05:57:17;44.23;;;21.70;;
3643;SDS011;1838;50.742;7.158;2023-02-21T05:59:43;56.17;;;24.70;;
3643;SDS011;1838;50.742;7.158;2023-02-21T06:02:12;50.40;;;23.77;;
3643;SDS011;1838;50.742;7.158;2023-02-21T06:04:38;58.97;;;29.50;;
3643;SDS011;1838;50.742;7.158;2023-02-21T06:07:03;57.67;;;31.73;;
3643;SDS011;1838;50.742;7.158;2023-02-21T06:09:29;60.93;;;32.50;;
3643;SDS011;1838;50.742;7.158;2023-02-21T06:11:55;49.20;;;27.13;;
3643;SDS011;1838;50.742;7.158;2023-02-21T06:14:21;53.73;;;27.53;;
3643;SDS011;1838;50.742;7.158;2023-02-21T06:16:47;56.80;;;25.93;;
3643;SDS011;1838;50.742;7.158;2023-02-21T06:19:13;49.40;;;25.40;;
3643;SDS011;1838;50.742;7.158;2023-02-21T06:21:40;59.03;;;25.50;;
3643;SDS011;1838;50.742;7.158;2023-02-21T06:24:06;52.43;;;24.87;;
3643;SDS011;1838;50.742;7.158;2023-02-21T06:26:32;47.87;;;23.50;;
3643;SDS011;1838;50.742;7.158;2023-02-21T06:28:58;48.87;;;24.90;;
3643;SDS011;1838;50.742;7.158;2023-02-21T06:31:24;45.03;;;23.87;;
3643;SDS011;1838;50.742;7.158;2023-02-21T06:33:49;47.60;;;23.60;;
3643;SDS011;1838;50.742;7.158;2023-02-21T06:36:16;56.27;;;22.23;;
3643;SDS011;1838;50.742;7.158;2023-02-21T06:38:45;51.60;;;24.73;;
3643;SDS011;1838;50.742;7.158;2023-02-21T06:41:14;63.23;;;27.33;;
3643;SDS011;1838;50.742;7.158;2023-02-21T06:43:41;48.30;;;22.37;;
3643;SDS011;1838;50.742;7.158;2023-02-21T06:46:06;60.60;;;23.80;;
3643;SDS011;1838;50.742;7.158;2023-02-21T06:48:32;49.03;;;22.70;;
3643;SDS011;1838;50.742;7.158;2023-02-21T06:50:57;49.60;;;22.40;;
3643;SDS011;1838;50.742;7.158;2023-02-21T06:53:23;55.20;;;25.60;;
3643;SDS011;1838;50.742;7.158;2023-02-21T06:55:49;50.23;;;24.13;;
3643;SDS011;1838;50.742;7.158;2023-02-21T06:58:15;46.73;;;22.47;;
3643;SDS011;1838;50.742;7.158;2023-02-21T07:00:40;45.80;;;21.30;;
3643;SDS011;1838;50.742;7.158;2023-02-21T07:03:06;43.13;;;21.33;;
3643;SDS011;1838;50.742;7.158;2023-02-21T07:05:31;58.17;;;22.70;;
3643;SDS011;1838;50.742;7.158;2023-02-21T07:07:59;52.60;;;24.30;;
3643;SDS011;1838;50.742;7.158;2023-02-21T07:10:25;54.47;;;23.57;;
3643;SDS011;1838;50.742;7.158;2023-02-21T07:12:51;46.10;;;22.90;;
3643;SDS011;1838;50.742;7.158;2023-02-21T07:15:16;55.93;;;24.77;;
3643;SDS011;1838;50.742;7.158;2023-02-21T07:17:42;52.33;;;23.67;;
3643;SDS011;1838;50.742;7.158;2023-02-21T07:20:08;50.60;;;22.90;;
3643;SDS011;1838;50.742;7.158;2023-02-21T07:22:33;44.37;;;21.50;;
3643;SDS011;1838;50.742;7.158;2023-02-21T07:24:59;49.97;;;22.17;;
3643;SDS011;1838;50.742;7.158;2023-02-21T07:27:24;46.23;;;22.57;;
3643;SDS011;1838;50.742;7.158;2023-02-21T07:29:50;50.50;;;23.27;;
3643;SDS011;1838;50.742;7.158;2023-02-21T07:32:16;49.87;;;21.87;;
3643;SDS011;1838;50.742;7.158;2023-02-21T07:34:41;43.30;;;22.07;;
3643;SDS011;1838;50.742;7.158;2023-02-21T07:37:07;43.70;;;20.17;;
3643;SDS011;1838;50.742;7.158;2023-02-21T07:39:33;47.93;;;21.60;;
3643;SDS011;1838;50.742;7.158;2023-02-21T07:41:59;42.67;;;20.33;;
3643;SDS011;1838;50.742;7.158;2023-02-21T07:44:24;53.47;;;21.00;;
3643;SDS011;1838;50.742;7.158;2023-02-21T07:46:50;44.63;;;19.77;;
3643;SDS011;1838;50.742;7.158;2023-02-21T07:49:16;38.97;;;19.67;;
3643;SDS011;1838;50.742;7.158;2023-02-21T07:51:41;44.10;;;22.07;;
3643;SDS011;1838;50.742;7.158;2023-02-21T07:54:07;50.30;;;20.53;;
3643;SDS011;1838;50.742;7.158;2023-02-21T07:56:32;40.23;;;20.10;;
3643;SDS011;1838;50.742;7.158;2023-02-21T07:58:58;41.33;;;20.30;;
3643;SDS011;1838;50.742;7.158;2023-02-21T08:01:24;45.97;;;21.40;;
3643;SDS011;1838;50.742;7.158;2023-02-21T08:03:50;48.70;;;23.27;;
3643;SDS011;1838;50.742;7.158;2023-02-21T08:06:16;43.57;;;21.63;;
3643;SDS011;1838;50.742;7.158;2023-02-21T08:08:43;50.13;;;23.73;;
3643;SDS011;1838;50.742;7.158;2023-02-21T08:11:09;46.97;;;23.70;;
3643;SDS011;1838;50.742;7.158;2023-02-21T08:13:35;52.97;;;24.10;;
3643;SDS011;1838;50.742;7.158;2023-02-21T08:16:01;53.60;;;26.77;;
3643;SDS011;1838;50.742;7.158;2023-02-21T08:18:26;45.13;;;22.23;;
3643;SDS011;1838;50.742;7.158;2023-02-21T08:20:52;47.23;;;21.90;;
3643;SDS011;1838;50.742;7.158;2023-02-21T08:23:19;47.97;;;22.07;;
3643;SDS011;1838;50.742;7.158;2023-02-21T08:25:45;42.07;;;18.83;;
3643;SDS011;1838;50.742;7.158;2023-02-21T08:28:11;37.70;;;17.90;;
3643;SDS011;1838;50.742;7.158;2023-02-21T08:30:38;43.23;;;19.37;;
3643;SDS011;1838;50.742;7.158;2023-02-21T08:33:03;36.83;;;18.40;;
3643;SDS011;1838;50.742;7.158;2023-02-21T08:35:29;41.43;;;19.03;;
3643;SDS011;1838;50.742;7.158;2023-02-21T08:37:55;39.00;;;19.63;;
3643;SDS011;1838;50.742;7.158;2023-02-21T08:40:21;40.83;;;20.30;;
3643;SDS011;1838;50.742;7.158;2023-02-21T08:42:51;50.00;;;23.33;;
3643;SDS011;1838;50.742;7.158;2023-02-21T08:45:18;42.23;;;20.13;;
3643;SDS011;1838;50.742;7.158;2023-02-21T08:47:46;43.23;;;21.73;;
3643;SDS011;1838;50.742;7.158;2023-02-21T08:50:12;42.40;;;21.50;;
3643;SDS011;1838;50.742;7.158;2023-02-21T08:52:38;40.17;;;20.37;;
3643;SDS011;1838;50.742;7.158;2023-02-21T08:55:04;48.10;;;20.50;;
3643;SDS011;1838;50.742;7.158;2023-02-21T08:57:30;43.43;;;19.10;;
3643;SDS011;1838;50.742;7.158;2023-02-21T08:59:58;38.20;;;18.67;;
3643;SDS011;1838;50.742;7.158;2023-02-21T09:02:25;43.13;;;21.00;;
3643;SDS011;1838;50.742;7.158;2023-02-21T09:04:51;46.70;;;20.77;;
3643;SDS011;1838;50.742;7.158;2023-02-21T09:07:20;46.30;;;21.37;;
3643;SDS011;1838;50.742;7.158;2023-02-21T09:09:47;50.53;;;22.40;;
3643;SDS011;1838;50.742;7.158;2023-02-21T09:12:12;52.03;;;21.60;;
3643;SDS011;1838;50.742;7.158;2023-02-21T09:14:40;40.87;;;19.30;;
3643;SDS011;1838;50.742;7.158;2023-02-21T09:17:07;39.10;;;18.97;;
3643;SDS011;1838;50.742;7.158;2023-02-21T09:19:34;43.37;;;21.47;;
3643;SDS011;1838;50.742;7.158;2023-02-21T09:22:00;46.07;;;22.87;;
3643;SDS011;1838;50.742;7.158;2023-02-21T09:24:28;50.47;;;20.73;;
3643;SDS011;1838;50.742;7.158;2023-02-21T09:26:54;59.63;;;31.40;;
3643;SDS011;1838;50.742;7.158;2023-02-21T09:29:23;49.67;;;30.50;;
3643;SDS011;1838;50.742;7.158;2023-02-21T09:31:49;60.43;;;32.80;;
3643;SDS011;1838;50.742;7.158;2023-02-21T09:34:15;56.77;;;33.10;;
3643;SDS011;1838;50.742;7.158;2023-02-21T09:36:41;58.93;;;35.83;;
3643;SDS011;1838;50.742;7.158;2023-02-21T09:39:07;62.67;;;37.07;;
3643;SDS011;1838;50.742;7.158;2023-02-21T09:41:34;59.97;;;35.03;;
3643;SDS011;1838;50.742;7.158;2023-02-21T09:44:00;60.00;;;35.60;;
3643;SDS011;1838;50.742;7.158;2023-02-21T09:49:11;60.57;;;32.90;;
3643;SDS011;1838;50.742;7.158;2023-02-21T09:51:42;59.30;;;31.80;;
3643;SDS011;1838;50.742;7.158;2023-02-21T09:57:05;56.70;;;30.57;;
3643;SDS011;1838;50.742;7.158;2023-02-21T09:59:35;53.50;;;29.53;;
3643;SDS011;1838;50.742;7.158;2023-02-21T10:10:04;49.03;;;25.63;;
3643;SDS011;1838;50.742;7.158;2023-02-21T10:12:48;43.67;;;24.43;;
3643;SDS011;1838;50.742;7.158;2023-02-21T10:15:34;48.20;;;26.20;;
3643;SDS011;1838;50.742;7.158;2023-02-21T10:20:38;44.03;;;24.97;;
3643;SDS011;1838;50.742;7.158;2023-02-21T10:23:13;44.77;;;24.73;;
3643;SDS011;1838;50.742;7.158;2023-02-21T10:25:53;41.77;;;22.30;;
3643;SDS011;1838;50.742;7.158;2023-02-21T10:28:26;38.53;;;21.23;;
3643;SDS011;1838;50.742;7.158;2023-02-21T10:30:57;48.67;;;22.67;;
3643;SDS011;1838;50.742;7.158;2023-02-21T10:33:25;43.17;;;22.80;;
3643;SDS011;1838;50.742;7.158;2023-02-21T10:35:51;37.57;;;20.47;;
3643;SDS011;1838;50.742;7.158;2023-02-21T10:38:19;43.83;;;22.07;;
3643;SDS011;1838;50.742;7.158;2023-02-21T10:40:55;41.30;;;21.67;;
3643;SDS011;1838;50.742;7.158;2023-02-21T10:48:31;42.80;;;23.37;;
3643;SDS011;1838;50.742;7.158;2023-02-21T10:51:04;41.20;;;23.23;;
3643;SDS011;1838;50.742;7.158;2023-02-21T10:53:31;40.83;;;21.57;;
3643;SDS011;1838;50.742;7.158;2023-02-21T11:01:18;42.07;;;22.73;;
3643;SDS011;1838;50.742;7.158;2023-02-21T11:03:51;35.90;;;20.63;;
3643;SDS011;1838;50.742;7.158;2023-02-21T11:06:23;30.07;;;17.60;;
3643;SDS011;1838;50.742;7.158;2023-02-21T11:08:57;35.60;;;19.97;;
3643;SDS011;1838;50.742;7.158;2023-02-21T11:14:33;34.90;;;19.87;;
3643;SDS011;1838;50.742;7.158;2023-02-21T11:17:26;37.20;;;19.77;;
3643;SDS011;1838;50.742;7.158;2023-02-21T11:19:52;34.00;;;18.80;;
3643;SDS011;1838;50.742;7.158;2023-02-21T11:27:44;36.93;;;18.13;;
3643;SDS011;1838;50.742;7.158;2023-02-21T11:30:27;33.67;;;18.60;;
3643;SDS011;1838;50.742;7.158;2023-02-21T11:32:55;33.43;;;18.30;;
3643;SDS011;1838;50.742;7.158;2023-02-21T11:35:24;34.10;;;16.80;;
3643;SDS011;1838;50.742;7.158;2023-02-21T11:37:53;31.63;;;18.00;;
3643;SDS011;1838;50.742;7.158;2023-02-21T11:40:27;31.87;;;17.60;;
3643;SDS011;1838;50.742;7.158;2023-02-21T11:43:10;24.90;;;15.47;;
3643;SDS011;1838;50.742;7.158;2023-02-21T11:45:40;33.60;;;18.70;;
3643;SDS011;1838;50.742;7.158;2023-02-21T11:48:13;34.80;;;19.90;;
3643;SDS011;1838;50.742;7.158;2023-02-21T11:50:43;35.40;;;18.80;;
3643;SDS011;1838;50.742;7.158;2023-02-21T11:53:30;36.90;;;20.30;;
3643;SDS011;1838;50.742;7.158;2023-02-21T12:21:12;32.10;;;17.50;;
3643;SDS011;1838;50.742;7.158;2023-02-21T12:24:06;27.30;;;16.33;;
3643;SDS011;1838;50.742;7.158;2023-02-21T12:29:20;34.20;;;17.73;;
3643;SDS011;1838;50.742;7.158;2023-02-21T12:34:35;35.33;;;17.73;;
3643;SDS011;1838;50.742;7.158;2023-02-21T12:40:13;34.20;;;16.73;;
3643;SDS011;1838;50.742;7.158;2023-02-21T12:45:43;38.63;;;19.13;;
3643;SDS011;1838;50.742;7.158;2023-02-21T12:50:50;30.03;;;18.33;;
3643;SDS011;1838;50.742;7.158;2023-02-21T12:53:27;39.50;;;18.50;;
3643;SDS011;1838;50.742;7.158;2023-02-21T12:58:41;30.17;;;17.20;;
3643;SDS011;1838;50.742;7.158;2023-02-21T13:01:13;29.40;;;17.43;;
3643;SDS011;1838;50.742;7.158;2023-02-21T13:03:51;33.70;;;17.90;;
3643;SDS011;1838;50.742;7.158;2023-02-21T13:06:37;35.30;;;19.23;;
3643;SDS011;1838;50.742;7.158;2023-02-21T13:09:12;36.20;;;18.50;;
3643;SDS011;1838;50.742;7.158;2023-02-21T13:11:53;29.07;;;17.20;;
3643;SDS011;1838;50.742;7.158;2023-02-21T13:14:20;36.53;;;18.33;;
3643;SDS011;1838;50.742;7.158;2023-02-21T13:16:51;33.77;;;19.30;;
3643;SDS011;1838;50.742;7.158;2023-02-21T13:19:17;34.87;;;18.50;;
3643;SDS011;1838;50.742;7.158;2023-02-21T13:24:13;31.43;;;17.20;;
3643;SDS011;1838;50.742;7.158;2023-02-21T13:30:00;34.40;;;18.73;;
3643;SDS011;1838;50.742;7.158;2023-02-21T13:32:59;31.73;;;17.53;;
3643;SDS011;1838;50.742;7.158;2023-02-21T13:35:35;33.47;;;18.23;;
3643;SDS011;1838;50.742;7.158;2023-02-21T13:38:04;28.73;;;17.17;;
3643;SDS011;1838;50.742;7.158;2023-02-21T13:43:00;33.75;;;17.40;;
3643;SDS011;1838;50.742;7.158;2023-02-21T13:45:28;35.30;;;17.37;;
3643;SDS011;1838;50.742;7.158;2023-02-21T13:58:34;32.60;;;18.40;;
3643;SDS011;1838;50.742;7.158;2023-02-21T14:04:47;36.03;;;17.87;;
3643;SDS011;1838;50.742;7.158;2023-02-21T14:07:12;31.97;;;18.17;;
3643;SDS011;1838;50.742;7.158;2023-02-21T14:09:39;31.20;;;17.70;;
3643;SDS011;1838;50.742;7.158;2023-02-21T14:12:05;40.20;;;19.20;;
3643;SDS011;1838;50.742;7.158;2023-02-21T14:14:35;33.67;;;17.70;;
3643;SDS011;1838;50.742;7.158;2023-02-21T14:17:07;35.60;;;20.67;;
3643;SDS011;1838;50.742;7.158;2023-02-21T14:24:44;41.93;;;20.20;;
3643;SDS011;1838;50.742;7.158;2023-02-21T14:29:39;40.23;;;19.50;;
3643;SDS011;1838;50.742;7.158;2023-02-21T14:39:57;39.50;;;21.50;;
3643;SDS011;1838;50.742;7.158;2023-02-21T14:42:50;39.40;;;21.77;;
3643;SDS011;1838;50.742;7.158;2023-02-21T14:48:44;38.80;;;20.80;;
3643;SDS011;1838;50.742;7.158;2023-02-21T14:54:57;37.00;;;21.10;;
3643;SDS011;1838;50.742;7.158;2023-02-21T15:03:41;42.20;;;20.93;;
3643;SDS011;1838;50.742;7.158;2023-02-21T15:06:23;44.13;;;21.80;;
3643;SDS011;1838;50.742;7.158;2023-02-21T15:08:51;42.23;;;22.37;;
3643;SDS011;1838;50.742;7.158;2023-02-21T15:14:11;47.63;;;23.47;;
3643;SDS011;1838;50.742;7.158;2023-02-21T15:16:46;42.47;;;23.33;;
3643;SDS011;1838;50.742;7.158;2023-02-21T15:19:19;40.57;;;21.83;;
3643;SDS011;1838;50.742;7.158;2023-02-21T15:21:49;47.17;;;21.67;;
3643;SDS011;1838;50.742;7.158;2023-02-21T15:24:56;43.27;;;22.03;;
3643;SDS011;1838;50.742;7.158;2023-02-21T15:27:22;44.30;;;21.07;;
3643;SDS011;1838;50.742;7.158;2023-02-21T15:30:02;43.67;;;20.93;;
3643;SDS011;1838;50.742;7.158;2023-02-21T15:33:04;41.33;;;22.27;;
3643;SDS011;1838;50.742;7.158;2023-02-21T15:35:43;45.87;;;23.63;;
3643;SDS011;1838;50.742;7.158;2023-02-21T15:44:06;48.23;;;22.43;;
3643;SDS011;1838;50.742;7.158;2023-02-21T15:46:47;42.23;;;22.87;;
3643;SDS011;1838;50.742;7.158;2023-02-21T15:51:53;50.83;;;24.10;;
3643;SDS011;1838;50.742;7.158;2023-02-21T15:56:44;51.70;;;25.30;;
3643;SDS011;1838;50.742;7.158;2023-02-21T15:59:12;55.87;;;25.83;;
3643;SDS011;1838;50.742;7.158;2023-02-21T16:04:37;52.60;;;26.57;;
3643;SDS011;1838;50.742;7.158;2023-02-21T16:07:04;64.67;;;26.50;;
3643;SDS011;1838;50.742;7.158;2023-02-21T16:09:32;53.27;;;25.70;;
3643;SDS011;1838;50.742;7.158;2023-02-21T16:14:31;53.17;;;27.80;;
3643;SDS011;1838;50.742;7.158;2023-02-21T16:17:12;59.27;;;27.17;;
3643;SDS011;1838;50.742;7.158;2023-02-21T16:19:58;56.57;;;27.53;;
3643;SDS011;1838;50.742;7.158;2023-02-21T16:22:34;57.63;;;28.47;;
3643;SDS011;1838;50.742;7.158;2023-02-21T16:25:05;65.50;;;30.07;;
3643;SDS011;1838;50.742;7.158;2023-02-21T16:27:34;58.90;;;27.00;;
3643;SDS011;1838;50.742;7.158;2023-02-21T16:30:00;57.77;;;29.20;;
3643;SDS011;1838;50.742;7.158;2023-02-21T16:32:26;64.30;;;29.90;;
3643;SDS011;1838;50.742;7.158;2023-02-21T16:34:51;68.50;;;29.23;;
3643;SDS011;1838;50.742;7.158;2023-02-21T16:37:19;67.13;;;30.13;;
3643;SDS011;1838;50.742;7.158;2023-02-21T16:39:45;61.60;;;29.70;;
3643;SDS011;1838;50.742;7.158;2023-02-21T16:42:12;68.47;;;29.63;;
3643;SDS011;1838;50.742;7.158;2023-02-21T16:44:38;82.27;;;32.53;;
3643;SDS011;1838;50.742;7.158;2023-02-21T16:47:04;74.93;;;33.20;;
3643;SDS011;1838;50.742;7.158;2023-02-21T16:49:30;82.77;;;33.43;;
3643;SDS011;1838;50.742;7.158;2023-02-21T16:51:56;73.93;;;33.90;;
3643;SDS011;1838;50.742;7.158;2023-02-21T16:54:22;76.77;;;33.90;;
3643;SDS011;1838;50.742;7.158;2023-02-21T16:56:48;66.77;;;32.27;;
3643;SDS011;1838;50.742;7.158;2023-02-21T16:59:16;83.90;;;36.63;;
3643;SDS011;1838;50.742;7.158;2023-02-21T17:01:44;85.03;;;33.60;;
3643;SDS011;1838;50.742;7.158;2023-02-21T17:04:20;88.63;;;34.87;;
3643;SDS011;1838;50.742;7.158;2023-02-21T17:07:06;87.37;;;38.50;;
3643;SDS011;1838;50.742;7.158;2023-02-21T17:09:34;97.03;;;36.30;;
3643;SDS011;1838;50.742;7.158;2023-02-21T17:12:03;88.70;;;36.77;;
3643;SDS011;1838;50.742;7.158;2023-02-21T17:14:30;76.43;;;34.80;;
3643;SDS011;1838;50.742;7.158;2023-02-21T17:16:56;93.70;;;36.50;;
3643;SDS011;1838;50.742;7.158;2023-02-21T17:19:22;94.87;;;37.77;;
3643;SDS011;1838;50.742;7.158;2023-02-21T17:21:48;96.00;;;35.63;;
3643;SDS011;1838;50.742;7.158;2023-02-21T17:24:15;88.73;;;36.60;;
3643;SDS011;1838;50.742;7.158;2023-02-21T17:26:41;95.33;;;40.13;;
3643;SDS011;1838;50.742;7.158;2023-02-21T17:29:07;108.43;;;40.93;;
3643;SDS011;1838;50.742;7.158;2023-02-21T17:31:33;111.60;;;41.57;;
3643;SDS011;1838;50.742;7.158;2023-02-21T17:33:59;102.60;;;38.67;;
3643;SDS011;1838;50.742;7.158;2023-02-21T17:36:25;109.63;;;40.87;;
3643;SDS011;1838;50.742;7.158;2023-02-21T17:38:52;116.30;;;40.83;;
3643;SDS011;1838;50.742;7.158;2023-02-21T17:41:18;107.87;;;38.67;;
3643;SDS011;1838;50.742;7.158;2023-02-21T17:43:45;111.00;;;40.10;;
3643;SDS011;1838;50.742;7.158;2023-02-21T17:46:14;93.23;;;40.37;;
3643;SDS011;1838;50.742;7.158;2023-02-21T17:48:40;121.40;;;40.90;;
3643;SDS011;1838;50.742;7.158;2023-02-21T17:51:07;108.83;;;41.77;;
3643;SDS011;1838;50.742;7.158;2023-02-21T17:53:33;104.33;;;39.07;;
3643;SDS011;1838;50.742;7.158;2023-02-21T17:55:59;107.07;;;37.50;;
3643;SDS011;1838;50.742;7.158;2023-02-21T17:58:25;102.17;;;39.97;;
3643;SDS011;1838;50.742;7.158;2023-02-21T18:00:52;100.53;;;40.10;;